createdAt,value
2018-11-11T00:00:25.666Z,31.73
2018-11-11T00:02:55.791Z,32.27
2018-11-11T00:05:25.579Z,34.97
2018-11-11T00:07:58.820Z,31.63
2018-11-11T00:10:28.575Z,33.80
2018-11-11T00:12:59.897Z,31.30
2018-11-11T00:15:31.293Z,32.20
2018-11-11T00:18:04.044Z,38.10
2018-11-11T00:20:34.025Z,36.30
2018-11-11T00:23:03.734Z,35.40
2018-11-11T00:25:33.562Z,35.57
2018-11-11T00:28:04.014Z,30.03
2018-11-11T00:30:33.740Z,34.90
2018-11-11T00:33:03.515Z,30.37
2018-11-11T00:35:33.213Z,32.40
2018-11-11T00:38:04.975Z,34.37
2018-11-11T00:40:34.538Z,35.37
2018-11-11T00:43:04.631Z,32.90
2018-11-11T00:45:34.360Z,30.10
2018-11-11T00:48:04.106Z,35.03
2018-11-11T00:50:34.125Z,35.27
2018-11-11T00:53:03.862Z,32.93
2018-11-11T00:55:38.630Z,29.63
2018-11-11T00:58:08.631Z,33.57
2018-11-11T01:00:38.407Z,35.20
2018-11-11T01:03:08.089Z,30.03
2018-11-11T01:05:37.806Z,31.90
2018-11-11T01:08:09.673Z,32.47
2018-11-11T01:10:39.280Z,32.30
2018-11-11T01:13:08.936Z,33.93
2018-11-11T01:15:38.708Z,33.90
2018-11-11T01:18:08.347Z,34.27
2018-11-11T01:20:38.047Z,33.80
2018-11-11T01:23:07.896Z,34.27
2018-11-11T01:25:37.579Z,31.37
2018-11-11T01:28:16.910Z,38.30
2018-11-11T01:30:46.767Z,33.33
2018-11-11T01:33:16.755Z,32.47
2018-11-11T01:35:46.711Z,32.37
2018-11-11T01:38:16.446Z,36.43
2018-11-11T01:40:46.207Z,31.37
2018-11-11T01:43:15.862Z,34.77
2018-11-11T01:45:45.656Z,34.60
2018-11-11T01:48:15.440Z,34.50
2018-11-11T01:50:45.145Z,31.10
2018-11-11T01:53:14.946Z,29.30
2018-11-11T01:55:44.641Z,38.47
2018-11-11T01:58:22.063Z,34.10
2018-11-11T02:01:00.428Z,30.70
2018-11-11T02:03:30.926Z,34.90
2018-11-11T02:06:07.582Z,30.63
2018-11-11T02:08:37.960Z,32.63
2018-11-11T02:11:07.651Z,35.83
2018-11-11T02:13:37.259Z,33.30
2018-11-11T02:16:07.823Z,31.50
2018-11-11T02:18:37.620Z,28.93
2018-11-11T02:21:07.836Z,33.47
2018-11-11T02:23:37.682Z,31.87
2018-11-11T02:26:07.711Z,33.40
2018-11-11T02:28:37.576Z,32.43
2018-11-11T02:31:07.713Z,33.33
2018-11-11T02:33:37.521Z,35.97
2018-11-11T02:36:25.266Z,29.63
2018-11-11T02:38:55.494Z,40.60
2018-11-11T02:41:25.270Z,34.93
2018-11-11T02:43:54.962Z,31.77
2018-11-11T02:46:24.701Z,35.13
2018-11-11T02:48:54.410Z,34.17
2018-11-11T02:51:34.501Z,34.73
2018-11-11T02:54:04.299Z,37.07
2018-11-11T02:56:33.894Z,33.73
2018-11-11T02:59:03.679Z,32.90
2018-11-11T03:01:33.396Z,37.87
2018-11-11T03:04:03.142Z,36.40
2018-11-11T03:06:33.064Z,34.30
2018-11-11T03:09:02.836Z,36.23
2018-11-11T03:11:32.540Z,35.23
2018-11-11T03:14:02.253Z,35.53
2018-11-11T03:16:31.971Z,36.23
2018-11-11T03:19:01.747Z,36.43
2018-11-11T03:21:31.607Z,40.03
2018-11-11T03:24:01.835Z,37.37
2018-11-11T03:26:31.785Z,37.63
2018-11-11T03:29:01.567Z,36.13
2018-11-11T03:31:31.215Z,37.23
2018-11-11T03:34:01.447Z,35.77
2018-11-11T03:36:31.099Z,35.63
2018-11-11T03:39:04.771Z,41.13
2018-11-11T03:41:34.578Z,37.37
2018-11-11T03:44:04.470Z,39.10
2018-11-11T03:46:34.253Z,40.23
2018-11-11T03:49:05.256Z,33.27
2018-11-11T03:51:35.073Z,37.07
2018-11-11T03:54:23.042Z,36.17
2018-11-11T03:56:52.751Z,33.93
2018-11-11T03:59:24.510Z,29.57
2018-11-11T04:01:56.808Z,33.03
2018-11-11T04:04:26.724Z,30.10
2018-11-11T04:06:56.484Z,32.00
2018-11-11T04:09:26.391Z,29.27
2018-11-11T04:11:56.131Z,35.53
2018-11-11T04:14:25.852Z,31.67
2018-11-11T04:16:55.571Z,29.30
2018-11-11T04:19:25.213Z,30.20
2018-11-11T04:21:54.936Z,27.70
2018-11-11T04:24:24.728Z,29.07
2018-11-11T04:26:54.470Z,29.87
2018-11-11T04:29:24.190Z,27.10
2018-11-11T04:31:53.934Z,28.23
2018-11-11T04:34:23.763Z,28.30
2018-11-11T04:36:53.491Z,27.57
2018-11-11T04:39:23.218Z,27.23
2018-11-11T04:41:52.853Z,32.20
2018-11-11T04:44:22.637Z,29.47
2018-11-11T04:46:52.399Z,29.80
2018-11-11T04:49:26.134Z,27.47
2018-11-11T04:51:55.959Z,26.73
2018-11-11T04:54:25.787Z,29.10
2018-11-11T04:56:55.606Z,27.27
2018-11-11T04:59:25.328Z,27.67
2018-11-11T05:01:55.126Z,30.37
2018-11-11T05:04:24.848Z,29.27
2018-11-11T05:06:54.558Z,29.77
2018-11-11T05:09:24.322Z,29.97
2018-11-11T05:12:07.639Z,32.10
2018-11-11T05:14:37.459Z,31.07
2018-11-11T05:17:07.449Z,30.20
2018-11-11T05:19:40.412Z,27.63
2018-11-11T05:22:10.179Z,29.37
2018-11-11T05:24:40.046Z,28.23
2018-11-11T05:27:09.839Z,30.07
2018-11-11T05:29:39.647Z,29.27
2018-11-11T05:32:15.083Z,25.53
2018-11-11T05:34:45.466Z,25.47
2018-11-11T05:37:16.135Z,26.87
2018-11-11T05:39:46.168Z,24.23
2018-11-11T05:42:15.823Z,24.63
2018-11-11T05:44:49.607Z,28.17
2018-11-11T05:47:19.283Z,30.90
2018-11-11T05:49:48.965Z,27.77
2018-11-11T05:52:19.916Z,29.60
2018-11-11T05:54:49.615Z,28.60
2018-11-11T05:57:19.374Z,28.17
2018-11-11T05:59:49.077Z,23.53
2018-11-11T06:02:18.787Z,30.90
2018-11-11T06:04:48.655Z,27.07
2018-11-11T06:07:19.019Z,26.33
2018-11-11T06:09:48.683Z,28.47
2018-11-11T06:12:18.483Z,26.77
2018-11-11T06:14:48.297Z,30.93
2018-11-11T06:17:17.928Z,32.17
2018-11-11T06:19:47.569Z,26.80
2018-11-11T06:22:19.416Z,28.87
2018-11-11T06:24:50.690Z,28.17
2018-11-11T06:27:20.778Z,28.60
2018-11-11T06:29:50.396Z,25.93
2018-11-11T06:32:20.050Z,28.37
2018-11-11T06:34:49.718Z,28.83
2018-11-11T06:37:20.386Z,27.20
2018-11-11T06:39:50.112Z,30.40
2018-11-11T06:42:19.790Z,28.77
2018-11-11T06:44:49.555Z,28.63
2018-11-11T06:47:20.200Z,29.30
2018-11-11T06:49:49.955Z,29.43
2018-11-11T06:52:19.726Z,30.63
2018-11-11T06:54:50.304Z,30.97
2018-11-11T06:57:20.624Z,30.67
2018-11-11T06:59:50.429Z,29.63
2018-11-11T07:02:20.175Z,32.03
2018-11-11T07:04:50.903Z,33.07
2018-11-11T07:07:20.557Z,32.57
2018-11-11T07:09:50.350Z,27.73
2018-11-11T07:12:20.473Z,30.87
2018-11-11T07:14:50.535Z,30.83
2018-11-11T07:17:20.157Z,28.57
2018-11-11T07:19:49.878Z,32.20
2018-11-11T07:22:19.560Z,28.90
2018-11-11T07:24:49.994Z,28.80
2018-11-11T07:27:20.838Z,29.83
2018-11-11T07:29:50.611Z,29.53
2018-11-11T07:32:20.427Z,27.77
2018-11-11T07:34:50.372Z,30.67
2018-11-11T07:37:27.120Z,27.63
2018-11-11T07:40:08.290Z,27.20
2018-11-11T07:42:38.136Z,31.00
2018-11-11T07:45:08.015Z,29.73
2018-11-11T07:47:39.240Z,32.23
2018-11-11T07:50:21.274Z,31.73
2018-11-11T07:52:51.764Z,29.47
2018-11-11T07:55:21.813Z,29.87
2018-11-11T07:57:51.781Z,29.97
2018-11-11T08:00:22.348Z,28.77
2018-11-11T08:02:52.539Z,27.40
2018-11-11T08:05:22.403Z,27.20
2018-11-11T08:07:52.671Z,31.50
2018-11-11T08:10:39.180Z,30.03
2018-11-11T08:13:33.541Z,28.13
2018-11-11T08:16:03.414Z,30.50
2018-11-11T08:18:33.076Z,27.23
2018-11-11T08:21:16.566Z,28.60
2018-11-11T08:23:46.302Z,29.03
2018-11-11T08:26:27.632Z,33.90
2018-11-11T08:28:57.346Z,28.90
2018-11-11T08:31:27.062Z,28.63
2018-11-11T08:34:00.779Z,28.33
2018-11-11T08:36:30.505Z,27.17
2018-11-11T08:39:00.793Z,31.17
2018-11-11T08:41:30.486Z,33.10
2018-11-11T08:44:00.386Z,33.30
2018-11-11T08:46:30.193Z,31.13
2018-11-11T08:48:59.846Z,29.43
2018-11-11T08:51:29.666Z,29.27
2018-11-11T08:53:59.451Z,29.27
2018-11-11T08:56:58.322Z,28.00
2018-11-11T08:59:28.604Z,28.40
2018-11-11T09:01:58.283Z,26.83
2018-11-11T09:04:29.944Z,27.73
2018-11-11T09:06:59.616Z,32.37
2018-11-11T09:09:29.328Z,31.67
2018-11-11T09:12:04.672Z,27.40
2018-11-11T09:14:34.473Z,27.70
2018-11-11T09:17:04.216Z,28.63
2018-11-11T09:19:40.450Z,26.80
2018-11-11T09:22:10.164Z,29.87
2018-11-11T09:24:50.438Z,27.30
2018-11-11T09:27:21.297Z,26.57
2018-11-11T09:29:51.070Z,25.50
2018-11-11T09:32:31.387Z,27.70
2018-11-11T09:35:03.224Z,24.50
2018-11-11T09:37:32.970Z,31.33
2018-11-11T09:40:04.506Z,28.40
2018-11-11T09:42:34.938Z,29.43
2018-11-11T09:45:05.563Z,29.27
2018-11-11T09:47:39.133Z,26.50
2018-11-11T09:50:27.644Z,22.37
2018-11-11T09:52:57.373Z,21.90
2018-11-11T09:55:27.338Z,22.70
2018-11-11T09:58:03.399Z,20.57
2018-11-11T10:00:39.604Z,23.07
2018-11-11T10:03:21.573Z,19.13
2018-11-11T10:06:06.181Z,21.33
2018-11-11T10:08:58.416Z,20.27
2018-11-11T10:13:41.338Z,20.57
2018-11-11T10:16:16.566Z,18.33
2018-11-11T10:18:51.999Z,20.53
2018-11-11T10:22:26.977Z,21.33
2018-11-11T10:25:03.925Z,20.10
2018-11-11T10:27:49.864Z,22.60
2018-11-11T10:30:26.291Z,21.77
2018-11-11T10:33:18.061Z,20.47
2018-11-11T10:35:57.467Z,19.53
2018-11-11T10:38:35.057Z,20.87
2018-11-11T10:41:17.129Z,21.47
2018-11-11T10:43:58.506Z,19.47
2018-11-11T10:47:36.554Z,20.57
2018-11-11T10:50:08.981Z,20.63
2018-11-11T10:52:39.167Z,22.57
2018-11-11T10:55:09.214Z,19.87
2018-11-11T10:57:38.942Z,20.53
2018-11-11T11:00:14.004Z,20.23
2018-11-11T11:03:08.610Z,20.77
2018-11-11T11:05:42.343Z,19.10
2018-11-11T11:08:12.134Z,20.33
2018-11-11T11:10:43.192Z,18.90
2018-11-11T11:13:13.295Z,19.63
2018-11-11T11:15:45.343Z,18.27
2018-11-11T11:18:34.479Z,18.73
2018-11-11T11:21:04.643Z,17.63
2018-11-11T11:23:35.353Z,18.60
2018-11-11T11:26:05.459Z,18.37
2018-11-11T11:28:35.304Z,20.27
2018-11-11T11:31:05.228Z,19.20
2018-11-11T11:33:36.127Z,17.17
2018-11-11T11:36:06.058Z,17.43
2018-11-11T11:38:36.170Z,16.07
2018-11-11T11:41:09.146Z,16.83
2018-11-11T11:43:40.180Z,16.30
2018-11-11T11:46:10.234Z,12.17
2018-11-11T11:48:40.131Z,11.23
2018-11-11T11:51:28.014Z,12.43
2018-11-11T11:54:06.107Z,11.93
2018-11-11T11:56:37.143Z,9.23
2018-11-11T11:59:08.301Z,5.80
2018-11-11T12:01:38.357Z,6.60
2018-11-11T12:04:08.274Z,5.30
2018-11-11T12:06:38.060Z,5.57
2018-11-11T12:09:17.903Z,5.87
2018-11-11T12:11:47.660Z,6.43
2018-11-11T12:14:17.497Z,7.03
2018-11-11T12:16:47.346Z,7.20
2018-11-11T12:19:30.843Z,6.83
2018-11-11T12:22:01.055Z,7.27
2018-11-11T12:24:30.778Z,9.10
2018-11-11T12:27:03.660Z,8.17
2018-11-11T12:29:53.510Z,7.20
2018-11-11T12:32:24.251Z,8.80
2018-11-11T12:34:54.316Z,8.30
2018-11-11T12:37:23.993Z,7.67
2018-11-11T12:39:54.053Z,7.53
2018-11-11T12:42:23.603Z,6.80
2018-11-11T12:44:53.933Z,7.57
2018-11-11T12:47:24.168Z,8.27
2018-11-11T12:50:16.317Z,7.50
2018-11-11T12:52:46.824Z,7.40
2018-11-11T12:55:16.900Z,8.40
2018-11-11T12:57:46.637Z,7.73
2018-11-11T13:00:16.812Z,7.77
2018-11-11T13:02:46.651Z,7.23
2018-11-11T13:05:16.463Z,7.37
2018-11-11T13:07:48.004Z,6.90
2018-11-11T13:10:17.910Z,8.20
2018-11-11T13:15:40.198Z,6.53
2018-11-11T13:21:15.523Z,8.63
2018-11-11T13:23:45.228Z,7.30
2018-11-11T13:26:15.673Z,9.67
2018-11-11T13:28:45.420Z,7.72
2018-11-11T13:31:15.421Z,7.17
2018-11-11T13:33:45.222Z,7.58
2018-11-11T13:36:15.100Z,7.17
2018-11-11T13:41:50.751Z,7.53
2018-11-11T13:44:20.503Z,7.73
2018-11-11T13:46:50.530Z,7.10
2018-11-11T13:49:20.402Z,11.65
2018-11-11T13:51:50.205Z,9.03
2018-11-11T13:54:20.504Z,8.73
2018-11-11T13:56:50.273Z,10.77
2018-11-11T13:59:20.763Z,10.40
2018-11-11T14:01:55.207Z,9.77
2018-11-11T14:04:25.452Z,11.80
2018-11-11T14:06:55.273Z,11.87
2018-11-11T14:09:25.052Z,11.80
2018-11-11T14:11:55.180Z,12.90
2018-11-11T14:14:25.179Z,12.60
2018-11-11T14:16:56.899Z,12.97
2018-11-11T14:19:26.727Z,13.37
2018-11-11T14:21:56.513Z,12.83
2018-11-11T14:24:26.306Z,11.80
2018-11-11T14:26:56.396Z,12.10
2018-11-11T14:29:26.175Z,11.50
2018-11-11T14:31:55.906Z,14.63
2018-11-11T14:34:25.840Z,12.67
2018-11-11T14:36:55.731Z,12.40
2018-11-11T14:39:25.615Z,13.47
2018-11-11T14:41:55.402Z,12.50
2018-11-11T14:44:36.029Z,13.73
2018-11-11T14:47:07.256Z,15.30
2018-11-11T14:49:36.971Z,12.50
2018-11-11T14:52:08.788Z,12.57
2018-11-11T14:54:38.440Z,14.00
2018-11-11T14:57:32.763Z,13.83
2018-11-11T15:00:02.761Z,13.27
2018-11-11T15:02:33.360Z,14.67
2018-11-11T15:05:03.429Z,14.27
2018-11-11T15:07:33.244Z,13.23
2018-11-11T15:10:03.217Z,12.10
2018-11-11T15:12:33.041Z,13.03
2018-11-11T15:15:02.783Z,14.00
2018-11-11T15:17:32.512Z,20.87
2018-11-11T15:20:02.387Z,13.37
2018-11-11T15:22:32.022Z,15.33
2018-11-11T15:25:01.654Z,15.57
2018-11-11T15:27:31.393Z,20.33
2018-11-11T15:30:01.119Z,12.67
2018-11-11T15:32:30.754Z,13.97
2018-11-11T15:35:00.602Z,13.23
2018-11-11T15:37:30.481Z,13.97
2018-11-11T15:40:00.427Z,15.57
2018-11-11T15:42:30.499Z,18.90
2018-11-11T15:45:00.971Z,14.73
2018-11-11T15:47:31.518Z,11.63
2018-11-11T15:50:01.296Z,15.03
2018-11-11T15:52:32.412Z,11.60
2018-11-11T15:55:04.460Z,13.47
2018-11-11T15:57:37.702Z,13.70
2018-11-11T16:00:20.660Z,23.93
2018-11-11T16:02:50.413Z,12.03
2018-11-11T16:05:22.403Z,14.73
2018-11-11T16:07:53.411Z,16.10
2018-11-11T16:10:24.448Z,13.17
2018-11-11T16:12:54.447Z,14.83
2018-11-11T16:15:27.718Z,20.40
2018-11-11T16:17:59.711Z,21.67
2018-11-11T16:20:30.346Z,17.93
2018-11-11T16:23:02.820Z,14.30
2018-11-11T16:28:21.318Z,13.57
2018-11-11T16:30:52.759Z,16.80
2018-11-11T16:33:41.955Z,13.97
2018-11-11T16:36:11.654Z,12.70
2018-11-11T16:38:41.420Z,14.40
2018-11-11T16:41:11.389Z,13.43
2018-11-11T16:43:41.042Z,13.60
2018-11-11T16:46:10.751Z,12.07
2018-11-11T16:48:40.538Z,11.80
2018-11-11T16:51:11.670Z,12.50
2018-11-11T16:53:42.421Z,13.13
2018-11-11T16:56:18.339Z,13.63
2018-11-11T16:59:12.657Z,12.87
2018-11-11T17:01:45.292Z,15.67
2018-11-11T17:04:15.710Z,12.17
2018-11-11T17:06:47.092Z,11.40
2018-11-11T17:09:18.391Z,13.43
2018-11-11T17:12:00.531Z,12.10
2018-11-11T17:14:35.453Z,12.57
2018-11-11T17:17:05.966Z,12.87
2018-11-11T17:19:43.543Z,12.87
2018-11-11T17:22:22.687Z,13.60
2018-11-11T17:24:54.845Z,14.03
2018-11-11T17:27:43.730Z,15.57
2018-11-11T17:30:17.667Z,13.20
2018-11-11T17:32:48.602Z,10.93
2018-11-11T17:35:18.785Z,14.63
2018-11-11T17:37:48.932Z,22.87
2018-11-11T17:40:23.315Z,13.07
2018-11-11T17:43:05.658Z,16.77
2018-11-11T17:45:42.902Z,15.03
2018-11-11T17:48:13.304Z,13.67
2018-11-11T17:50:43.911Z,14.90
2018-11-11T17:53:18.753Z,13.83
2018-11-11T17:55:49.189Z,13.80
2018-11-11T17:58:22.663Z,16.03
2018-11-11T18:00:53.958Z,15.23
2018-11-11T18:03:23.817Z,16.00
2018-11-11T18:05:54.456Z,15.70
2018-11-11T18:08:24.422Z,15.70
2018-11-11T18:10:55.327Z,17.07
2018-11-11T18:13:26.947Z,20.53
2018-11-11T18:16:01.798Z,17.80
2018-11-11T18:18:36.422Z,14.87
2018-11-11T18:21:06.501Z,16.67
2018-11-11T18:23:36.443Z,16.50
2018-11-11T18:26:06.964Z,15.50
2018-11-11T18:28:36.773Z,16.77
2018-11-11T18:31:07.576Z,17.77
2018-11-11T18:33:37.956Z,16.27
2018-11-11T18:36:08.377Z,20.80
2018-11-11T18:38:39.295Z,14.70
2018-11-11T18:41:09.231Z,16.70
2018-11-11T18:43:39.471Z,17.13
2018-11-11T18:46:11.147Z,16.07
2018-11-11T18:48:56.268Z,19.73
2018-11-11T18:51:28.176Z,15.73
2018-11-11T18:53:57.957Z,19.03
2018-11-11T18:56:32.245Z,18.40
2018-11-11T18:59:02.470Z,16.07
2018-11-11T19:01:32.189Z,16.17
2018-11-11T19:04:03.156Z,18.30
2018-11-11T19:06:33.086Z,21.77
2018-11-11T19:09:03.118Z,19.03
2018-11-11T19:11:33.798Z,18.87
2018-11-11T19:14:04.457Z,19.70
2018-11-11T19:16:34.474Z,18.67
2018-11-11T19:19:05.114Z,19.20
2018-11-11T19:21:35.873Z,20.53
2018-11-11T19:24:06.752Z,18.73
2018-11-11T19:26:37.483Z,16.97
2018-11-11T19:29:08.191Z,18.03
2018-11-11T19:31:38.133Z,14.70
2018-11-11T19:34:24.447Z,16.60
2018-11-11T19:36:54.298Z,16.10
2018-11-11T19:39:29.385Z,15.13
2018-11-11T19:41:59.206Z,14.57
2018-11-11T19:44:29.933Z,15.83
2018-11-11T19:47:18.667Z,17.23
2018-11-11T19:49:48.640Z,17.47
2018-11-11T19:52:18.400Z,16.23
2018-11-11T19:54:48.223Z,17.13
2018-11-11T19:57:26.174Z,17.07
2018-11-11T19:59:56.667Z,14.90
2018-11-11T20:02:26.571Z,13.67
2018-11-11T20:04:56.307Z,15.40
2018-11-11T20:07:26.083Z,16.37
2018-11-11T20:09:55.983Z,18.27
2018-11-11T20:12:27.238Z,17.10
2018-11-11T20:14:56.992Z,17.90
2018-11-11T20:17:26.738Z,14.60
2018-11-11T20:20:00.878Z,15.40
2018-11-11T20:22:30.675Z,18.37
2018-11-11T20:25:00.446Z,15.03
2018-11-11T20:27:30.230Z,17.63
2018-11-11T20:30:00.082Z,16.20
2018-11-11T20:32:29.794Z,17.73
2018-11-11T20:34:59.622Z,14.00
2018-11-11T20:37:41.428Z,17.90
2018-11-11T20:40:22.023Z,15.47
2018-11-11T20:42:56.856Z,15.13
2018-11-11T20:45:31.672Z,15.40
2018-11-11T20:48:11.657Z,15.47
2018-11-11T20:50:42.779Z,19.40
2018-11-11T20:53:13.188Z,17.80
2018-11-11T20:55:53.548Z,14.37
2018-11-11T20:58:28.034Z,15.03
2018-11-11T21:01:03.541Z,14.83
2018-11-11T21:03:47.830Z,17.37
2018-11-11T21:06:21.307Z,15.03
2018-11-11T21:08:57.963Z,15.00
2018-11-11T21:11:27.809Z,16.30
2018-11-11T21:14:06.683Z,16.77
2018-11-11T21:16:39.201Z,16.73
2018-11-11T21:19:15.741Z,14.23
2018-11-11T21:21:52.402Z,20.57
2018-11-11T21:24:28.020Z,19.90
2018-11-11T21:27:05.600Z,18.43
2018-11-11T21:29:36.520Z,20.50
2018-11-11T21:32:17.019Z,21.17
2018-11-11T21:34:59.590Z,30.00
2018-11-11T21:37:34.192Z,43.20
2018-11-11T21:40:04.578Z,44.40
2018-11-11T21:42:40.464Z,30.30
2018-11-11T21:45:13.924Z,36.77
2018-11-11T21:47:49.597Z,38.70
2018-11-11T21:50:21.444Z,51.30
2018-11-11T21:53:41.347Z,54.63
2018-11-11T21:56:11.553Z,59.77
2018-11-11T21:58:42.675Z,62.20
2018-11-11T22:01:27.233Z,48.50
2018-11-11T22:04:11.476Z,41.97
2018-11-11T22:06:44.227Z,44.50
2018-11-11T22:09:23.265Z,42.83
2018-11-11T22:11:58.100Z,51.23
2018-11-11T22:14:28.348Z,52.87
2018-11-11T22:17:10.128Z,27.97
2018-11-11T22:19:42.850Z,23.10
2018-11-11T22:22:24.050Z,28.30
2018-11-11T22:24:56.096Z,22.60
2018-11-11T22:27:27.296Z,21.07
2018-11-11T22:30:03.534Z,34.60
2018-11-11T22:32:46.230Z,30.40
2018-11-11T22:35:18.037Z,36.37
2018-11-11T22:37:50.349Z,21.63
2018-11-11T22:40:21.993Z,17.83
2018-11-11T22:42:56.214Z,22.40
2018-11-11T22:45:27.345Z,16.77
2018-11-11T22:48:02.369Z,19.03
2018-11-11T22:50:32.513Z,16.30
2018-11-11T22:53:09.282Z,18.63
2018-11-11T22:55:41.073Z,19.70
2018-11-11T22:58:11.551Z,37.67
2018-11-11T23:00:49.772Z,74.33
2018-11-11T23:03:30.570Z,47.17
2018-11-11T23:06:08.663Z,105.57
2018-11-11T23:08:38.615Z,92.47
2018-11-11T23:11:09.200Z,58.40
2018-11-11T23:13:40.259Z,36.13
2018-11-11T23:16:19.629Z,38.10
2018-11-11T23:18:49.850Z,37.77
2018-11-11T23:21:26.537Z,40.57
2018-11-11T23:24:02.648Z,40.13
2018-11-11T23:26:32.893Z,33.40
2018-11-11T23:29:04.542Z,42.77
2018-11-11T23:31:41.575Z,44.70
2018-11-11T23:34:11.427Z,26.10
2018-11-11T23:36:41.147Z,28.80
2018-11-11T23:39:11.446Z,24.93
2018-11-11T23:41:50.742Z,28.67
2018-11-11T23:44:20.615Z,24.50
2018-11-11T23:46:54.150Z,31.80
2018-11-11T23:49:23.922Z,30.77
2018-11-11T23:51:53.971Z,15.43
2018-11-11T23:54:24.827Z,21.43
2018-11-11T23:56:54.484Z,31.70
2018-11-11T23:59:24.211Z,19.83
